Time;durP1;ratioP1;P1;durP2;ratioP2;P2;SDS_P1;SDS_P2;PMS_P1;PMS_P2;Temp;Humidity;BMP_temperature;BMP_pressure;BME280_temperature;BME280_humidity;BME280_pressure;Samples;Min_cycle;Max_cycle;Signal;HPM_P1;HPM_P2
2023/12/31 00:02:21;;;;;;;2.42;1.70;;;15.10;80.10;;;;;;4178803;28;21648;-47
2023/12/31 00:05:02;;;;;;;1.95;1.70;;;15.10;79.30;;;;;;4170761;28;20068;-46
2023/12/31 00:07:43;;;;;;;2.53;1.60;;;15.10;79.40;;;;;;4186071;28;20056;-48
2023/12/31 00:10:24;;;;;;;1.70;1.60;;;15.10;79.60;;;;;;4186847;28;20064;-45
2023/12/31 00:13:05;;;;;;;3.50;1.63;;;15.10;79.50;;;;;;4158889;28;20455;-46
2023/12/31 00:15:47;;;;;;;3.35;1.50;;;15.10;79.60;;;;;;4170431;28;20052;-46
2023/12/31 00:18:28;;;;;;;4.13;1.40;;;15.10;79.60;;;;;;4171909;28;20101;-46
2023/12/31 00:21:09;;;;;;;1.77;1.70;;;15.00;79.70;;;;;;4187406;28;20498;-48
2023/12/31 00:23:50;;;;;;;1.48;1.23;;;15.00;79.80;;;;;;4187319;28;20051;-46
2023/12/31 00:26:31;;;;;;;3.33;1.88;;;15.00;79.80;;;;;;4186109;28;20073;-46
2023/12/31 00:29:18;;;;;;;2.45;1.40;;;15.00;80.70;;;;;;4186803;28;20059;-47
2023/12/31 00:32:01;;;;;;;1.75;1.65;;;15.00;79.80;;;;;;4184761;28;20063;-47
2023/12/31 00:34:42;;;;;;;2.38;1.60;;;15.00;80.00;;;;;;4181256;28;20079;-48
2023/12/31 00:37:22;;;;;;;2.45;1.20;;;15.00;80.20;;;;;;4186275;28;20064;-48
2023/12/31 00:40:04;;;;;;;;;;;15.00;80.10;;;;;;4187924;28;20179;-47
2023/12/31 00:42:45;;;;;;;3.30;1.65;;;15.00;80.10;;;;;;4185755;28;19977;-46
2023/12/31 00:45:26;;;;;;;2.73;1.20;;;15.00;80.70;;;;;;4186499;28;20064;-47
2023/12/31 00:48:10;;;;;;;3.13;1.42;;;15.00;80.50;;;;;;4185702;28;20069;-49
2023/12/31 00:50:51;;;;;;;3.10;1.45;;;15.00;80.60;;;;;;4154119;28;20546;-46
2023/12/31 00:53:33;;;;;;;3.05;1.60;;;15.00;80.60;;;;;;4157192;28;20436;-50
2023/12/31 00:56:14;;;;;;;1.52;1.30;;;15.00;80.60;;;;;;4185909;28;20071;-49
2023/12/31 00:58:55;;;;;;;4.10;1.98;;;14.90;80.60;;;;;;4186307;28;20510;-47
2023/12/31 01:01:36;;;;;;;2.25;1.30;;;15.00;80.70;;;;;;4187770;28;20044;-49
2023/12/31 01:04:18;;;;;;;2.70;1.67;;;15.00;81.70;;;;;;4169948;28;20522;-34
2023/12/31 01:06:59;;;;;;;2.05;1.50;;;14.90;80.80;;;;;;4170553;28;20087;-48
2023/12/31 01:09:41;;;;;;;4.47;1.52;;;14.90;80.80;;;;;;4173978;28;20097;-48
2023/12/31 01:12:22;;;;;;;1.67;1.52;;;14.90;81.00;;;;;;4186239;28;20055;-47
2023/12/31 01:15:04;;;;;;;2.88;1.40;;;14.90;81.10;;;;;;4186890;28;20064;-47
2023/12/31 01:17:44;;;;;;;;;;;14.90;81.10;;;;;;4187549;28;20526;-46
2023/12/31 01:20:27;;;;;;;1.40;1.30;;;14.90;82.10;;;;;;4186364;28;20395;-47
2023/12/31 01:23:08;;;;;;;2.10;1.88;;;14.90;81.70;;;;;;4184061;28;20060;-46
2023/12/31 01:25:49;;;;;;;2.08;1.83;;;14.90;81.40;;;;;;4185541;28;20055;-49
2023/12/31 01:28:30;;;;;;;3.28;1.80;;;14.90;81.40;;;;;;4187537;28;20493;-46
2023/12/31 01:31:19;;;;;;;2.03;1.67;;;14.90;81.50;;;;;;4186442;28;20067;-51
2023/12/31 01:34:00;;;;;;;2.53;1.90;;;14.90;81.20;;;;;;4186887;28;20502;-46
2023/12/31 01:36:42;;;;;;;2.92;1.60;;;14.90;81.40;;;;;;4186334;28;20068;-47
2023/12/31 01:39:23;;;;;;;2.67;1.70;;;14.90;81.40;;;;;;4184254;28;20507;-47
2023/12/31 01:42:04;;;;;;;3.03;2.35;;;14.90;81.50;;;;;;4197286;28;20521;-49
2023/12/31 01:44:45;;;;;;;1.60;1.50;;;14.90;81.50;;;;;;4185948;28;20063;-46
2023/12/31 01:47:26;;;;;;;4.70;2.15;;;14.90;81.60;;;;;;4186368;28;20059;-47
2023/12/31 01:50:08;;;;;;;3.10;2.03;;;14.90;81.80;;;;;;4190494;28;20082;-49
2023/12/31 01:52:53;;;;;;;2.90;2.28;;;14.80;82.00;;;;;;4189793;28;20055;-46
2023/12/31 01:55:34;;;;;;;1.83;1.73;;;14.90;82.10;;;;;;4170889;28;20048;-47
2023/12/31 01:58:17;;;;;;;3.05;1.80;;;14.90;81.90;;;;;;4172543;28;20053;-49
2023/12/31 02:00:59;;;;;;;2.85;1.80;;;14.90;82.00;;;;;;4171478;28;20051;-46
2023/12/31 02:03:40;;;;;;;1.90;1.80;;;14.90;82.00;;;;;;4172286;28;20055;-49
2023/12/31 02:06:21;;;;;;;3.60;1.55;;;14.90;82.00;;;;;;4173493;28;20071;-47
2023/12/31 02:09:03;;;;;;;2.17;1.73;;;14.80;82.00;;;;;;4173078;28;20388;-46
2023/12/31 02:11:44;;;;;;;1.70;1.60;;;14.80;81.90;;;;;;4184700;28;20485;-45
2023/12/31 02:14:27;;;;;;;2.08;1.88;;;14.80;81.90;;;;;;4173179;28;20068;-47
2023/12/31 02:17:08;;;;;;;2.33;2.13;;;14.80;81.80;;;;;;4172464;28;20385;-46
2023/12/31 02:19:49;;;;;;;4.75;2.22;;;14.80;81.80;;;;;;4164240;28;20385;-45
2023/12/31 02:22:31;;;;;;;2.93;1.93;;;14.80;81.80;;;;;;4171723;28;20073;-46
2023/12/31 02:25:19;;;;;;;2.85;2.30;;;14.80;82.10;;;;;;4156430;28;20194;-46
2023/12/31 02:28:01;;;;;;;2.92;2.00;;;14.80;82.00;;;;;;4175584;28;20078;-46
2023/12/31 02:30:44;;;;;;;1.92;1.83;;;14.80;81.90;;;;;;4188019;28;20051;-45
2023/12/31 02:33:25;;;;;;;3.22;1.85;;;14.80;81.90;;;;;;4189615;28;20059;-45
2023/12/31 02:36:07;;;;;;;1.83;1.65;;;14.80;82.20;;;;;;4189147;28;20151;-44
2023/12/31 02:38:47;;;;;;;;;;;14.80;82.50;;;;;;4190095;28;20185;-46
2023/12/31 02:41:29;;;;;;;2.05;1.85;;;14.80;82.40;;;;;;4172833;28;20675;-44
2023/12/31 02:44:11;;;;;;;5.38;2.10;;;14.80;82.90;;;;;;4165230;28;20543;-44
2023/12/31 02:46:53;;;;;;;2.88;2.00;;;14.80;82.90;;;;;;4171759;28;20083;-45
2023/12/31 02:49:34;;;;;;;2.85;2.63;;;14.70;82.60;;;;;;4172352;28;20059;-47
2023/12/31 02:52:15;;;;;;;3.05;1.77;;;14.70;82.80;;;;;;4171419;28;20052;-45
2023/12/31 02:54:56;;;;;;;1.80;1.40;;;14.70;83.10;;;;;;4172486;28;20106;-45
2023/12/31 02:57:37;;;;;;;2.45;1.58;;;14.80;83.10;;;;;;4188799;28;20055;-46
2023/12/31 03:00:19;;;;;;;1.30;1.20;;;14.80;83.00;;;;;;4184796;28;20055;-49
2023/12/31 03:03:00;;;;;;;1.38;1.30;;;14.90;82.90;;;;;;4199303;28;20048;-45
2023/12/31 03:05:42;;;;;;;2.08;1.48;;;14.90;82.80;;;;;;4185228;28;20051;-47
2023/12/31 03:08:23;;;;;;;1.05;0.82;;;14.90;82.80;;;;;;4188816;28;20051;-46
2023/12/31 03:11:04;;;;;;;1.48;0.90;;;14.90;82.80;;;;;;4187467;28;20052;-46
2023/12/31 03:13:45;;;;;;;2.50;1.15;;;14.90;82.60;;;;;;4187731;28;20055;-45
2023/12/31 03:16:27;;;;;;;1.13;1.03;;;14.90;82.50;;;;;;4183057;28;20080;-47
2023/12/31 03:19:09;;;;;;;0.93;0.90;;;14.90;82.70;;;;;;4168462;28;20195;-44
2023/12/31 03:21:51;;;;;;;2.58;1.30;;;14.90;82.80;;;;;;4170825;28;20090;-48
2023/12/31 03:24:31;;;;;;;1.92;1.00;;;15.00;82.80;;;;;;4171632;28;20186;-49
2023/12/31 03:27:13;;;;;;;1.27;1.10;;;15.00;82.70;;;;;;4156739;28;20056;-49
2023/12/31 03:29:54;;;;;;;2.22;0.88;;;15.00;82.40;;;;;;4181206;28;20055;-47
2023/12/31 03:32:36;;;;;;;0.90;0.82;;;15.00;82.30;;;;;;4186271;28;20451;-49
2023/12/31 03:35:17;;;;;;;0.88;0.88;;;15.10;83.30;;;;;;4174885;28;20050;-49
2023/12/31 03:37:58;;;;;;;1.35;0.85;;;15.20;82.50;;;;;;4188303;28;20399;-50
2023/12/31 03:40:40;;;;;;;1.00;0.88;;;15.30;82.10;;;;;;4188466;28;20514;-50
2023/12/31 03:43:21;;;;;;;1.05;1.05;;;15.30;81.50;;;;;;4188532;28;20055;-50
2023/12/31 03:46:03;;;;;;;1.17;0.90;;;15.40;81.20;;;;;;4188160;28;20047;-50
2023/12/31 03:48:45;;;;;;;0.85;0.85;;;15.40;80.90;;;;;;4181560;28;20052;-50
2023/12/31 03:51:26;;;;;;;1.02;0.90;;;15.40;80.80;;;;;;4170615;28;20060;-46
2023/12/31 03:54:08;;;;;;;2.05;1.50;;;15.40;80.60;;;;;;4171222;28;20400;-49
2023/12/31 03:56:49;;;;;;;1.58;1.15;;;15.40;80.60;;;;;;4171106;28;20055;-47
2023/12/31 03:59:31;;;;;;;;;;;15.40;80.70;;;;;;4157926;28;20504;-48
2023/12/31 04:02:12;;;;;;;2.10;0.90;;;15.50;80.70;;;;;;4182622;28;20032;-48
2023/12/31 04:04:54;;;;;;;0.93;0.88;;;15.50;81.40;;;;;;4186320;28;20051;-49
2023/12/31 04:07:35;;;;;;;1.20;1.02;;;15.50;80.10;;;;;;4187946;28;20129;-48
2023/12/31 04:10:16;;;;;;;1.40;1.30;;;15.60;79.90;;;;;;4178163;28;20101;-50
2023/12/31 04:12:57;;;;;;;2.42;1.10;;;15.60;80.60;;;;;;4179648;28;20051;-47
2023/12/31 04:15:38;;;;;;;1.10;1.00;;;15.60;79.50;;;;;;4198077;28;20044;-48
2023/12/31 04:18:19;;;;;;;1.60;1.42;;;15.60;79.40;;;;;;4187112;28;20078;-50
2023/12/31 04:21:02;;;;;;;2.35;1.20;;;15.60;79.50;;;;;;4187585;28;20047;-47
2023/12/31 04:23:43;;;;;;;1.75;1.10;;;15.60;79.40;;;;;;4170912;28;20052;-50
2023/12/31 04:26:24;;;;;;;1.80;1.60;;;15.60;79.20;;;;;;4170881;28;20518;-49
2023/12/31 04:29:05;;;;;;;1.52;1.10;;;15.60;79.20;;;;;;4162206;28;20506;-49
2023/12/31 04:31:47;;;;;;;1.52;1.30;;;15.60;79.20;;;;;;4172048;28;20159;-47
2023/12/31 04:34:30;;;;;;;1.55;1.40;;;15.60;79.20;;;;;;4170663;28;20055;-49
2023/12/31 04:37:13;;;;;;;1.85;1.30;;;15.70;79.10;;;;;;4170615;28;20043;-49
2023/12/31 04:39:54;;;;;;;2.42;1.30;;;15.70;78.90;;;;;;4171514;28;20191;-49
2023/12/31 04:42:34;;;;;;;3.17;1.33;;;15.70;78.80;;;;;;4170729;28;20052;-47
2023/12/31 04:45:16;;;;;;;2.95;1.08;;;15.70;78.70;;;;;;4185684;28;20078;-50
2023/12/31 04:47:57;;;;;;;2.03;1.67;;;15.70;78.40;;;;;;4185819;28;20622;-48
2023/12/31 04:50:38;;;;;;;2.38;1.23;;;15.70;78.40;;;;;;4186003;28;20147;-48
2023/12/31 04:53:21;;;;;;;2.03;1.27;;;15.70;78.40;;;;;;4187385;28;20668;-50
2023/12/31 04:56:03;;;;;;;1.88;1.38;;;15.70;78.50;;;;;;4156575;28;20435;-48
2023/12/31 04:58:43;;;;;;;1.30;1.25;;;15.70;78.60;;;;;;4153399;28;20508;-49
2023/12/31 05:01:26;;;;;;;2.83;1.45;;;15.60;78.70;;;;;;4153044;28;20057;-52
2023/12/31 05:04:07;;;;;;;2.30;1.30;;;15.60;78.80;;;;;;4170628;28;20549;-52
2023/12/31 05:06:48;;;;;;;2.92;1.35;;;15.60;78.90;;;;;;4154162;28;20195;-52
2023/12/31 05:09:30;;;;;;;3.05;1.77;;;15.60;80.00;;;;;;4171548;28;20059;-46
2023/12/31 05:12:11;;;;;;;3.70;1.30;;;15.60;78.90;;;;;;4171030;28;20111;-50
2023/12/31 05:14:53;;;;;;;1.63;1.52;;;15.70;78.60;;;;;;4154251;28;20056;-47
2023/12/31 05:17:34;;;;;;;1.77;1.35;;;15.70;78.50;;;;;;4168797;28;20514;-48
2023/12/31 05:20:15;;;;;;;2.92;2.00;;;15.80;78.40;;;;;;4168929;28;20179;-47
2023/12/31 05:22:56;;;;;;;4.10;1.38;;;15.80;78.10;;;;;;4169769;28;20052;-48
2023/12/31 05:25:38;;;;;;;5.15;1.42;;;15.80;77.80;;;;;;4190306;28;20064;-49
2023/12/31 05:28:19;;;;;;;2.92;1.48;;;15.80;77.50;;;;;;4189064;28;20194;-49
2023/12/31 05:31:00;;;;;;;1.70;1.52;;;15.80;77.50;;;;;;4176594;28;20059;-47
2023/12/31 05:33:42;;;;;;;2.58;1.80;;;15.80;77.50;;;;;;4190453;28;20051;-46
2023/12/31 05:36:23;;;;;;;2.00;1.35;;;15.70;77.60;;;;;;4190075;28;20487;-47
2023/12/31 05:39:04;;;;;;;1.58;1.48;;;15.70;77.70;;;;;;4189232;28;20047;-48
2023/12/31 05:41:46;;;;;;;3.03;1.60;;;15.70;77.80;;;;;;4184726;28;20062;-50
2023/12/31 05:44:27;;;;;;;2.05;1.30;;;15.60;79.00;;;;;;4190120;28;20298;-51
2023/12/31 05:47:09;;;;;;;2.70;1.48;;;15.70;78.30;;;;;;4189749;28;20510;-52
2023/12/31 05:49:49;;;;;;;1.70;1.50;;;15.70;78.20;;;;;;4190231;28;20056;-49
2023/12/31 05:52:30;;;;;;;1.83;1.65;;;15.70;78.00;;;;;;4189140;28;20059;-48
2023/12/31 05:55:11;;;;;;;3.38;1.23;;;15.70;77.70;;;;;;4182762;28;20051;-46
2023/12/31 05:57:55;;;;;;;4.47;1.60;;;15.70;77.60;;;;;;4159614;28;20057;-47
2023/12/31 06:00:36;;;;;;;4.35;2.13;;;15.80;77.80;;;;;;4173003;28;20060;-45
2023/12/31 06:03:17;;;;;;;3.92;1.70;;;15.80;77.60;;;;;;4170083;28;20703;-51
2023/12/31 06:05:58;;;;;;;3.03;1.88;;;15.80;77.40;;;;;;4159558;28;20076;-45
2023/12/31 06:08:39;;;;;;;1.42;1.35;;;15.80;77.20;;;;;;4172964;28;20106;-48
2023/12/31 06:11:20;;;;;;;3.92;2.08;;;15.80;77.30;;;;;;4172615;28;20063;-51
2023/12/31 06:14:03;;;;;;;2.08;1.90;;;15.80;77.30;;;;;;4171887;28;20408;-50
2023/12/31 06:16:44;;;;;;;1.50;1.40;;;15.80;77.20;;;;;;4173448;28;20051;-50
2023/12/31 06:19:25;;;;;;;2.22;1.55;;;15.80;77.10;;;;;;4172429;28;20048;-46
2023/12/31 06:22:06;;;;;;;2.17;1.45;;;15.80;77.20;;;;;;4172912;28;20067;-49
2023/12/31 06:24:48;;;;;;;3.17;1.88;;;15.80;77.20;;;;;;4172995;28;20056;-50
2023/12/31 06:27:29;;;;;;;1.83;1.70;;;15.80;77.10;;;;;;4159597;28;20061;-47
2023/12/31 06:30:12;;;;;;;1.65;1.40;;;15.90;77.20;;;;;;4166925;28;20072;-49
2023/12/31 06:32:53;;;;;;;1.70;1.60;;;15.90;77.20;;;;;;4172928;28;20051;-47
2023/12/31 06:35:34;;;;;;;1.80;1.73;;;15.90;76.90;;;;;;4169521;28;20106;-49
2023/12/31 06:38:15;;;;;;;2.05;1.40;;;15.90;76.60;;;;;;4172337;28;20052;-47
2023/12/31 06:40:56;;;;;;;4.75;1.73;;;16.00;76.80;;;;;;4172799;28;20059;-49
2023/12/31 06:43:38;;;;;;;1.50;1.40;;;16.00;77.00;;;;;;4171852;28;20102;-48
2023/12/31 06:46:20;;;;;;;;;;;16.10;76.80;;;;;;4189548;28;20103;-50
2023/12/31 06:49:02;;;;;;;2.35;1.38;;;16.10;76.50;;;;;;4185900;28;19932;-49
2023/12/31 06:51:43;;;;;;;1.50;1.40;;;16.10;77.20;;;;;;4184134;28;20064;-45
2023/12/31 06:54:24;;;;;;;1.58;1.48;;;16.10;76.20;;;;;;4172813;28;20064;-47
2023/12/31 06:57:06;;;;;;;1.40;1.30;;;16.00;76.20;;;;;;4174323;28;20130;-46
2023/12/31 06:59:48;;;;;;;3.80;1.50;;;16.00;76.30;;;;;;4184708;28;20047;-45
2023/12/31 07:02:30;;;;;;;1.38;1.30;;;16.00;76.40;;;;;;4188254;28;20047;-47
2023/12/31 07:05:11;;;;;;;1.52;1.38;;;15.90;77.30;;;;;;4188397;28;20467;-46
2023/12/31 07:07:52;;;;;;;1.52;1.42;;;15.90;76.50;;;;;;4172360;28;20060;-45
2023/12/31 07:10:33;;;;;;;2.53;1.40;;;15.80;76.40;;;;;;4171203;28;20060;-45
2023/12/31 07:13:15;;;;;;;1.30;1.20;;;15.80;76.60;;;;;;4170995;28;20056;-45
2023/12/31 07:15:59;;;;;;;1.52;1.35;;;15.80;77.80;;;;;;4171967;28;20091;-49
2023/12/31 07:18:41;;;;;;;3.05;1.40;;;15.80;76.80;;;;;;4187673;28;20119;-46
2023/12/31 07:21:23;;;;;;;1.63;1.52;;;15.70;76.90;;;;;;4181350;28;20475;-42
2023/12/31 07:24:04;;;;;;;4.80;1.65;;;15.70;77.10;;;;;;4155716;28;20052;-43
2023/12/31 07:26:47;;;;;;;1.42;1.33;;;15.80;76.90;;;;;;4183738;28;20062;-43
2023/12/31 07:29:29;;;;;;;1.90;1.27;;;15.90;76.60;;;;;;4185868;28;20056;-42
2023/12/31 07:32:11;;;;;;;1.90;1.77;;;15.90;76.60;;;;;;4170479;28;20052;-41
2023/12/31 07:34:53;;;;;;;2.28;1.70;;;16.00;76.50;;;;;;4171874;28;20553;-42
2023/12/31 07:37:35;;;;;;;1.50;1.40;;;16.00;76.70;;;;;;4156515;28;20068;-42
2023/12/31 07:40:16;;;;;;;1.70;1.60;;;16.00;77.20;;;;;;4179597;28;20090;-42
2023/12/31 07:42:57;;;;;;;1.67;1.58;;;16.00;76.70;;;;;;4181372;28;20055;-41
2023/12/31 07:45:38;;;;;;;1.88;1.77;;;16.00;77.00;;;;;;4184670;28;20055;-41
2023/12/31 07:48:19;;;;;;;1.50;1.40;;;16.00;77.90;;;;;;4188151;28;20552;-41
2023/12/31 07:51:03;;;;;;;1.85;1.75;;;16.00;78.60;;;;;;4188046;28;20051;-41
2023/12/31 07:53:44;;;;;;;1.77;1.58;;;15.90;79.60;;;;;;4171908;28;20768;-41
2023/12/31 07:56:25;;;;;;;1.50;1.40;;;15.90;79.70;;;;;;4169495;28;20059;-41
2023/12/31 07:59:06;;;;;;;2.75;1.33;;;15.90;79.90;;;;;;4179826;28;20133;-42
2023/12/31 08:01:47;;;;;;;1.60;1.50;;;15.80;80.40;;;;;;4187921;28;20502;-41
2023/12/31 08:04:28;;;;;;;2.13;1.50;;;15.80;80.70;;;;;;4186143;28;20055;-41
2023/12/31 08:07:10;;;;;;;1.52;1.30;;;15.70;80.60;;;;;;4171589;28;20060;-41
2023/12/31 08:09:51;;;;;;;1.50;1.40;;;15.70;82.30;;;;;;4169543;28;20064;-41
2023/12/31 08:12:32;;;;;;;2.03;1.30;;;15.60;82.10;;;;;;4160689;28;20052;-41
2023/12/31 08:15:13;;;;;;;1.58;1.48;;;15.70;82.00;;;;;;4156245;28;20056;-41
2023/12/31 08:17:55;;;;;;;1.65;1.20;;;15.70;82.40;;;;;;4176280;28;20412;-41
2023/12/31 08:20:35;;;;;;;1.92;1.30;;;15.80;82.00;;;;;;4186562;28;20358;-41
2023/12/31 08:23:19;;;;;;;2.08;1.30;;;15.80;81.60;;;;;;4174402;28;20182;-41
2023/12/31 08:26:00;;;;;;;1.48;1.30;;;15.90;82.10;;;;;;4187406;28;20067;-41
2023/12/31 08:28:40;;;;;;;1.70;1.60;;;15.90;81.80;;;;;;4187677;28;20491;-41
2023/12/31 08:31:21;;;;;;;1.33;1.17;;;15.90;81.90;;;;;;4171075;28;20052;-41
2023/12/31 08:34:02;;;;;;;1.42;1.33;;;16.00;82.00;;;;;;4157759;28;20055;-41
2023/12/31 08:36:43;;;;;;;1.70;1.60;;;16.00;81.10;;;;;;4186230;28;20042;-41
2023/12/31 08:39:26;;;;;;;1.30;1.25;;;15.90;81.20;;;;;;4175351;28;20056;-41
2023/12/31 08:42:07;;;;;;;2.60;1.75;;;15.90;80.70;;;;;;4186487;28;20486;-42
2023/12/31 08:44:48;;;;;;;2.17;1.42;;;16.00;80.80;;;;;;4186693;28;20537;-40
2023/12/31 08:47:36;;;;;;;1.30;1.20;;;15.90;80.80;;;;;;4186118;28;20071;-41
2023/12/31 08:50:17;;;;;;;1.60;1.50;;;15.90;80.40;;;;;;4185308;28;20051;-43
2023/12/31 08:52:58;;;;;;;2.20;1.60;;;15.80;80.40;;;;;;4184538;28;20197;-40
2023/12/31 08:55:41;;;;;;;1.42;1.40;;;15.80;80.50;;;;;;4169448;28;20059;-42
2023/12/31 08:58:22;;;;;;;1.42;1.33;;;15.80;80.00;;;;;;4175461;28;20063;-41
2023/12/31 09:01:03;;;;;;;1.50;1.40;;;15.70;79.90;;;;;;4184656;28;20113;-41
2023/12/31 09:03:44;;;;;;;1.50;1.40;;;15.70;80.30;;;;;;4187250;28;20048;-40
2023/12/31 09:06:25;;;;;;;1.50;1.40;;;15.70;80.60;;;;;;4180730;28;20561;-42
2023/12/31 09:09:06;;;;;;;1.60;1.50;;;15.70;80.90;;;;;;4171451;28;20134;-42
2023/12/31 09:11:52;;;;;;;2.03;1.80;;;15.80;80.70;;;;;;4169079;28;20051;-41
2023/12/31 09:14:33;;;;;;;1.45;1.30;;;15.80;80.80;;;;;;4180300;28;20055;-41
2023/12/31 09:17:14;;;;;;;1.63;1.50;;;15.80;81.10;;;;;;4181204;28;20562;-40
2023/12/31 09:19:56;;;;;;;1.83;1.73;;;15.80;81.50;;;;;;4184381;28;20063;-41
2023/12/31 09:22:37;;;;;;;1.70;1.60;;;15.90;81.30;;;;;;4166301;28;20052;-42
2023/12/31 09:25:18;;;;;;;1.92;1.83;;;15.90;80.80;;;;;;4171412;28;20067;-41
2023/12/31 09:28:01;;;;;;;2.28;1.75;;;16.00;81.50;;;;;;4182905;28;20499;-42
2023/12/31 09:30:41;;;;;;;1.88;1.52;;;16.00;80.60;;;;;;4170942;28;20067;-41
2023/12/31 09:33:23;;;;;;;4.28;1.50;;;16.10;80.40;;;;;;4167571;28;20471;-42
2023/12/31 09:36:05;;;;;;;1.48;1.38;;;16.10;80.20;;;;;;4170319;28;20388;-41
2023/12/31 09:38:45;;;;;;;1.50;1.40;;;16.10;80.10;;;;;;4170247;28;20186;-42
2023/12/31 09:41:26;;;;;;;1.77;1.60;;;16.20;79.80;;;;;;4170008;28;20188;-42
2023/12/31 09:44:10;;;;;;;2.08;1.70;;;16.40;79.50;;;;;;4178208;28;20048;-41
2023/12/31 09:47:00;;;;;;;2.35;1.80;;;16.80;77.90;;;;;;4186029;28;20506;-42
2023/12/31 09:49:46;;;;;;;1.75;1.52;;;17.30;77.10;;;;;;4168472;28;20056;-42
2023/12/31 09:52:28;;;;;;;;;;;17.70;74.50;;;;;;4168361;28;20068;-42
2023/12/31 09:55:10;;;;;;;5.25;4.80;;;18.10;72.30;;;;;;4155225;28;20466;-41
2023/12/31 09:57:54;;;;;;;2.58;2.40;;;18.40;70.60;;;;;;4160340;28;20084;-43
2023/12/31 10:00:36;;;;;;;2.85;2.60;;;18.70;69.50;;;;;;4177036;28;20052;-41
2023/12/31 10:03:19;;;;;;;12.20;9.88;;;18.90;68.20;;;;;;4177070;28;20815;-42
2023/12/31 10:06:00;;;;;;;2.17;1.83;;;19.20;68.20;;;;;;4167098;28;20080;-43
2023/12/31 10:08:42;;;;;;;;;;;19.30;66.90;;;;;;4168890;28;20056;-43
2023/12/31 10:11:23;;;;;;;1.60;1.50;;;19.40;67.30;;;;;;4176067;28;20395;-44
2023/12/31 10:14:05;;;;;;;2.10;1.90;;;19.40;66.80;;;;;;4171721;28;20056;-48
2023/12/31 10:16:47;;;;;;;5.65;1.75;;;19.30;66.60;;;;;;4177755;28;20058;-47
2023/12/31 10:19:30;;;;;;;1.75;1.65;;;19.30;66.60;;;;;;4170883;28;20120;-45
2023/12/31 10:22:11;;;;;;;1.83;1.70;;;19.30;66.60;;;;;;4172290;28;20218;-44
2023/12/31 10:24:52;;;;;;;2.15;1.48;;;19.30;67.40;;;;;;4188422;28;20051;-43
2023/12/31 10:27:34;;;;;;;1.88;1.77;;;19.40;67.30;;;;;;4189097;28;20078;-42
2023/12/31 10:30:15;;;;;;;1.80;1.70;;;19.50;67.10;;;;;;4188208;28;20056;-45
2023/12/31 10:33:09;;;;;;;1.70;1.48;;;19.50;66.40;;;;;;4184827;28;20059;-42
2023/12/31 10:35:50;;;;;;;3.05;2.13;;;19.50;65.60;;;;;;4175657;28;20055;-44
2023/12/31 10:38:43;;;;;;;;;;;19.40;66.60;;;;;;4183060;28;20242;-43
2023/12/31 10:41:25;;;;;;;2.40;1.70;;;19.50;66.50;;;;;;4173259;28;20086;-44
2023/12/31 10:44:12;;;;;;;2.08;1.98;;;19.40;66.80;;;;;;4184641;28;20398;-44
2023/12/31 10:46:57;;;;;;;1.83;1.73;;;19.50;66.60;;;;;;4184297;28;20089;-46
2023/12/31 10:49:46;;;;;;;1.67;1.58;;;19.50;66.40;;;;;;4179580;28;20060;-43
2023/12/31 10:52:29;;;;;;;2.13;1.92;;;19.60;66.50;;;;;;4175416;28;20064;-45
2023/12/31 10:55:13;;;;;;;2.03;1.88;;;19.70;65.90;;;;;;4181638;28;20082;-44
2023/12/31 10:57:55;;;;;;;2.95;1.95;;;19.70;66.00;;;;;;4176285;28;20067;-45
2023/12/31 11:00:36;;;;;;;2.10;1.90;;;19.70;65.30;;;;;;4171351;28;20411;-46
2023/12/31 11:03:19;;;;;;;3.28;1.98;;;19.70;65.30;;;;;;4181331;28;20051;-44
2023/12/31 11:06:03;;;;;;;2.10;2.00;;;19.70;65.30;;;;;;4181497;28;20056;-43
2023/12/31 11:08:45;;;;;;;1.92;1.77;;;19.70;65.10;;;;;;4172513;28;20086;-45
2023/12/31 11:11:26;;;;;;;1.98;1.88;;;19.70;64.90;;;;;;4177379;28;20055;-46
2023/12/31 11:14:09;;;;;;;2.22;2.13;;;19.60;65.10;;;;;;4176606;28;20048;-44
2023/12/31 11:17:04;;;;;;;2.20;2.00;;;19.50;65.80;;;;;;4169324;28;20056;-45
2023/12/31 11:20:13;;;;;;;2.58;2.33;;;19.50;65.60;;;;;;4167959;28;20055;-45
2023/12/31 11:23:02;;;;;;;4.13;1.90;;;19.60;65.40;;;;;;4171122;28;20048;-45
2023/12/31 11:25:46;;;;;;;2.50;2.30;;;19.60;65.00;;;;;;4167653;28;20520;-45
2023/12/31 11:28:27;;;;;;;2.63;1.83;;;19.60;64.60;;;;;;4172204;28;20072;-47
2023/12/31 11:31:09;;;;;;;;;;;19.60;65.40;;;;;;4172043;28;20094;-46
2023/12/31 11:33:51;;;;;;;2.72;2.42;;;19.60;66.20;;;;;;4181637;28;19927;-45
2023/12/31 11:36:32;;;;;;;2.40;2.20;;;19.60;66.60;;;;;;4171683;28;20102;-47
2023/12/31 11:39:17;;;;;;;2.10;2.00;;;19.60;66.70;;;;;;4168373;28;20864;-48
2023/12/31 11:42:08;;;;;;;1.90;1.80;;;19.70;66.30;;;;;;4177305;28;20060;-48
2023/12/31 11:44:49;;;;;;;2.72;2.53;;;19.70;66.30;;;;;;4174652;28;20059;-45
2023/12/31 11:47:32;;;;;;;6.93;3.03;;;19.80;66.10;;;;;;4172216;28;20476;-45
2023/12/31 11:50:21;;;;;;;2.28;2.05;;;19.80;66.00;;;;;;4170770;28;20122;-46
2023/12/31 11:53:04;;;;;;;2.33;1.88;;;19.80;65.70;;;;;;4183269;28;20059;-35
2023/12/31 11:55:51;;;;;;;3.38;2.50;;;19.70;66.20;;;;;;4168467;28;20404;-35
2023/12/31 11:58:34;;;;;;;3.55;2.40;;;19.70;66.60;;;;;;4168205;28;20416;-35
2023/12/31 12:01:14;;;;;;;2.13;2.03;;;19.60;66.90;;;;;;4168647;28;20106;-35
2023/12/31 12:03:58;;;;;;;5.13;2.78;;;19.50;67.30;;;;;;4171192;28;20064;-34
2023/12/31 12:06:40;;;;;;;4.55;2.55;;;19.40;67.70;;;;;;4171661;28;20063;-34
2023/12/31 12:09:22;;;;;;;2.47;1.90;;;19.30;68.30;;;;;;4168896;28;20064;-35
2023/12/31 12:12:07;;;;;;;2.40;1.70;;;19.10;68.70;;;;;;4166848;28;20048;-45
2023/12/31 12:14:50;;;;;;;1.50;1.02;;;19.10;69.10;;;;;;4166138;28;20052;-44
2023/12/31 12:17:31;;;;;;;2.00;1.80;;;19.10;69.10;;;;;;4182719;28;20051;-45
2023/12/31 12:20:13;;;;;;;6.53;1.10;;;19.20;69.00;;;;;;4166384;28;20060;-44
2023/12/31 12:22:55;;;;;;;1.13;1.05;;;19.30;68.90;;;;;;4168470;28;20101;-45
2023/12/31 12:25:36;;;;;;;2.70;1.10;;;19.30;68.50;;;;;;4182043;28;20055;-45
2023/12/31 12:28:18;;;;;;;3.22;1.33;;;19.30;68.30;;;;;;4181864;28;20051;-45
2023/12/31 12:30:59;;;;;;;1.25;1.15;;;19.30;68.30;;;;;;4168150;28;20052;-45
2023/12/31 12:33:43;;;;;;;1.05;1.05;;;19.40;68.40;;;;;;4182532;28;20051;-46
2023/12/31 12:36:25;;;;;;;1.80;1.58;;;19.40;68.10;;;;;;4168176;28;20064;-46
2023/12/31 12:39:13;;;;;;;4.57;1.52;;;19.50;68.70;;;;;;4173123;28;20052;-46
2023/12/31 12:41:54;;;;;;;0.70;0.70;;;19.50;67.90;;;;;;4182940;28;20105;-47
2023/12/31 12:44:37;;;;;;;1.02;0.70;;;19.50;68.20;;;;;;4171819;28;20484;-45
2023/12/31 12:47:20;;;;;;;1.65;0.75;;;19.50;67.90;;;;;;4165454;28;20047;-44
2023/12/31 12:50:02;;;;;;;2.20;0.90;;;19.50;67.80;;;;;;4168104;28;20119;-45
2023/12/31 12:52:43;;;;;;;0.60;0.60;;;19.40;68.10;;;;;;4167634;28;20055;-45
2023/12/31 12:55:24;;;;;;;0.90;0.50;;;19.30;68.30;;;;;;4183574;28;20055;-46
2023/12/31 12:58:05;;;;;;;0.93;0.77;;;19.20;70.00;;;;;;4167391;28;20060;-47
2023/12/31 13:00:48;;;;;;;1.38;1.02;;;19.10;69.10;;;;;;4175450;28;20052;-43
2023/12/31 13:03:29;;;;;;;1.65;0.90;;;19.00;69.90;;;;;;4178093;28;20447;-44
2023/12/31 13:06:10;;;;;;;1.52;1.20;;;19.00;70.50;;;;;;4174979;28;20056;-36
2023/12/31 13:08:51;;;;;;;1.70;1.38;;;19.00;70.90;;;;;;4176590;28;20098;-36
2023/12/31 13:11:32;;;;;;;2.25;1.27;;;19.10;70.70;;;;;;4177656;28;20619;-36
2023/12/31 13:14:14;;;;;;;2.05;1.13;;;19.20;70.30;;;;;;4170612;28;20083;-45
2023/12/31 13:16:56;;;;;;;1.08;1.00;;;19.20;70.00;;;;;;4167538;28;20064;-44
2023/12/31 13:19:37;;;;;;;1.00;0.77;;;19.30;70.20;;;;;;4178019;28;20090;-46
2023/12/31 13:22:19;;;;;;;1.00;1.00;;;19.40;69.90;;;;;;4182077;28;20202;-46
2023/12/31 13:25:00;;;;;;;1.00;1.00;;;19.40;69.60;;;;;;4175535;28;20180;-44
2023/12/31 13:27:41;;;;;;;1.73;0.90;;;19.50;69.50;;;;;;4171206;28;20194;-44
2023/12/31 13:30:22;;;;;;;;;;;19.50;69.60;;;;;;4181125;28;20067;-45
2023/12/31 13:33:06;;;;;;;1.58;1.15;;;19.60;69.50;;;;;;4167212;28;20069;-46
2023/12/31 13:35:47;;;;;;;1.13;1.13;;;19.70;69.50;;;;;;4166552;28;21084;-43
2023/12/31 13:38:29;;;;;;;1.85;1.00;;;19.70;69.30;;;;;;4178051;28;20071;-45
2023/12/31 13:41:09;;;;;;;1.05;0.80;;;19.70;69.10;;;;;;4172092;28;20056;-44
2023/12/31 13:43:50;;;;;;;1.35;1.10;;;19.60;69.20;;;;;;4179600;28;20113;-46
2023/12/31 13:46:32;;;;;;;2.15;1.23;;;19.60;69.50;;;;;;4178196;28;20052;-47
2023/12/31 13:49:14;;;;;;;2.10;1.52;;;19.60;70.00;;;;;;4186771;28;20071;-45
2023/12/31 13:51:55;;;;;;;1.35;1.23;;;19.70;69.80;;;;;;4174114;28;20138;-46
2023/12/31 13:54:36;;;;;;;1.13;1.02;;;19.70;69.60;;;;;;4180029;28;20125;-45
2023/12/31 13:57:17;;;;;;;1.52;0.70;;;19.60;69.00;;;;;;4186955;28;20063;-47
2023/12/31 13:59:59;;;;;;;;;;;19.60;69.20;;;;;;4184882;28;20503;-44
2023/12/31 14:02:44;;;;;;;2.40;0.90;;;19.60;69.50;;;;;;4169762;28;20066;-44
2023/12/31 14:05:32;;;;;;;3.53;1.27;;;19.60;69.20;;;;;;4172493;28;20051;-43
2023/12/31 14:08:14;;;;;;;2.55;1.13;;;19.60;68.60;;;;;;4181301;28;20059;-44